sensor_id;sensor_type;location;lat;lon;timestamp;temperature;humidity
28087;DHT22;15392;48.912;8.380;2022-09-09T00:02:17;22.10;50.60
28087;DHT22;15392;48.912;8.380;2022-09-09T00:04:58;22.20;51.30
28087;DHT22;15392;48.912;8.380;2022-09-09T00:10:32;22.20;50.50
28087;DHT22;15392;48.912;8.380;2022-09-09T00:16:15;22.30;51.00
28087;DHT22;15392;48.912;8.380;2022-09-09T00:18:52;22.20;50.30
28087;DHT22;15392;48.912;8.380;2022-09-09T00:24:38;22.30;50.40
28087;DHT22;15392;48.912;8.380;2022-09-09T00:27:16;22.30;50.60
28087;DHT22;15392;48.912;8.380;2022-09-09T00:32:54;22.30;50.80
28087;DHT22;15392;48.912;8.380;2022-09-09T00:35:38;22.30;50.50
28087;DHT22;15392;48.912;8.380;2022-09-09T00:38:18;22.30;50.70
28087;DHT22;15392;48.912;8.380;2022-09-09T00:40:52;22.30;50.40
28087;DHT22;15392;48.912;8.380;2022-09-09T00:43:31;22.30;50.80
28087;DHT22;15392;48.912;8.380;2022-09-09T00:46:23;22.30;50.70
28087;DHT22;15392;48.912;8.380;2022-09-09T00:51:59;22.30;51.20
28087;DHT22;15392;48.912;8.380;2022-09-09T00:54:45;22.30;50.70
28087;DHT22;15392;48.912;8.380;2022-09-09T00:57:29;22.30;50.80
28087;DHT22;15392;48.912;8.380;2022-09-09T01:14:49;22.30;50.10
28087;DHT22;15392;48.912;8.380;2022-09-09T01:17:26;22.30;50.40
28087;DHT22;15392;48.912;8.380;2022-09-09T01:26:18;22.30;50.40
28087;DHT22;15392;48.912;8.380;2022-09-09T01:28:51;22.30;50.50
28087;DHT22;15392;48.912;8.380;2022-09-09T01:31:42;22.30;50.30
28087;DHT22;15392;48.912;8.380;2022-09-09T01:34:18;22.20;50.60
28087;DHT22;15392;48.912;8.380;2022-09-09T01:39:35;22.20;51.00
28087;DHT22;15392;48.912;8.380;2022-09-09T01:42:03;22.10;50.60
28087;DHT22;15392;48.912;8.380;2022-09-09T01:44:30;22.10;50.60
28087;DHT22;15392;48.912;8.380;2022-09-09T01:46:57;22.10;50.50
28087;DHT22;15392;48.912;8.380;2022-09-09T01:49:23;22.00;50.40
28087;DHT22;15392;48.912;8.380;2022-09-09T01:51:52;22.00;50.40
28087;DHT22;15392;48.912;8.380;2022-09-09T01:54:22;21.90;50.60
28087;DHT22;15392;48.912;8.380;2022-09-09T01:56:58;21.90;51.00
28087;DHT22;15392;48.912;8.380;2022-09-09T02:02:40;21.70;50.30
28087;DHT22;15392;48.912;8.380;2022-09-09T02:08:20;21.50;50.40
28087;DHT22;15392;48.912;8.380;2022-09-09T02:11:17;21.50;50.30
28087;DHT22;15392;48.912;8.380;2022-09-09T02:13:46;21.40;50.50
28087;DHT22;15392;48.912;8.380;2022-09-09T02:21:44;21.30;50.20
28087;DHT22;15392;48.912;8.380;2022-09-09T02:24:13;21.20;50.20
28087;DHT22;15392;48.912;8.380;2022-09-09T02:26:42;21.20;50.50
28087;DHT22;15392;48.912;8.380;2022-09-09T02:29:22;21.20;50.50
28087;DHT22;15392;48.912;8.380;2022-09-09T02:31:53;21.20;51.20
28087;DHT22;15392;48.912;8.380;2022-09-09T02:34:23;21.20;50.50
28087;DHT22;15392;48.912;8.380;2022-09-09T02:36:49;21.20;50.80
28087;DHT22;15392;48.912;8.380;2022-09-09T02:39:16;21.30;51.00
28087;DHT22;15392;48.912;8.380;2022-09-09T02:41:42;21.30;51.80
28087;DHT22;15392;48.912;8.380;2022-09-09T02:44:13;21.30;51.10
28087;DHT22;15392;48.912;8.380;2022-09-09T02:50:15;21.30;51.60
28087;DHT22;15392;48.912;8.380;2022-09-09T02:56:04;21.40;51.40
28087;DHT22;15392;48.912;8.380;2022-09-09T02:58:44;21.30;52.10
28087;DHT22;15392;48.912;8.380;2022-09-09T03:01:10;21.30;51.10
28087;DHT22;15392;48.912;8.380;2022-09-09T03:03:36;21.30;51.20
28087;DHT22;15392;48.912;8.380;2022-09-09T03:06:02;21.30;51.30
28087;DHT22;15392;48.912;8.380;2022-09-09T03:08:28;21.30;51.30
28087;DHT22;15392;48.912;8.380;2022-09-09T03:10:58;21.30;51.40
28087;DHT22;15392;48.912;8.380;2022-09-09T03:13:26;21.20;51.70
28087;DHT22;15392;48.912;8.380;2022-09-09T03:15:52;21.20;51.40
28087;DHT22;15392;48.912;8.380;2022-09-09T03:18:18;21.20;51.40
28087;DHT22;15392;48.912;8.380;2022-09-09T03:20:43;21.10;51.50
28087;DHT22;15392;48.912;8.380;2022-09-09T03:23:12;21.10;51.50
28087;DHT22;15392;48.912;8.380;2022-09-09T03:25:39;21.10;51.40
28087;DHT22;15392;48.912;8.380;2022-09-09T03:28:04;21.00;51.10
28087;DHT22;15392;48.912;8.380;2022-09-09T03:30:30;21.00;50.90
28087;DHT22;15392;48.912;8.380;2022-09-09T03:32:56;21.00;50.70
28087;DHT22;15392;48.912;8.380;2022-09-09T03:35:22;21.00;51.00
28087;DHT22;15392;48.912;8.380;2022-09-09T03:37:48;21.00;51.20
28087;DHT22;15392;48.912;8.380;2022-09-09T03:40:14;21.10;51.10
28087;DHT22;15392;48.912;8.380;2022-09-09T03:42:41;21.10;51.10
28087;DHT22;15392;48.912;8.380;2022-09-09T03:45:08;21.10;50.80
28087;DHT22;15392;48.912;8.380;2022-09-09T03:47:36;21.10;50.90
28087;DHT22;15392;48.912;8.380;2022-09-09T03:50:02;21.20;51.00
28087;DHT22;15392;48.912;8.380;2022-09-09T03:52:29;21.20;50.90
28087;DHT22;15392;48.912;8.380;2022-09-09T03:54:56;21.20;50.60
28087;DHT22;15392;48.912;8.380;2022-09-09T03:57:22;21.20;50.80
28087;DHT22;15392;48.912;8.380;2022-09-09T03:59:48;21.30;50.90
28087;DHT22;15392;48.912;8.380;2022-09-09T04:02:13;21.30;50.70
28087;DHT22;15392;48.912;8.380;2022-09-09T04:04:39;21.30;50.70
28087;DHT22;15392;48.912;8.380;2022-09-09T04:07:05;21.30;50.50
28087;DHT22;15392;48.912;8.380;2022-09-09T04:09:32;21.40;50.40
28087;DHT22;15392;48.912;8.380;2022-09-09T04:11:58;21.40;50.50
28087;DHT22;15392;48.912;8.380;2022-09-09T04:14:23;21.40;50.70
28087;DHT22;15392;48.912;8.380;2022-09-09T04:16:54;21.40;50.80
28087;DHT22;15392;48.912;8.380;2022-09-09T04:19:21;21.50;50.70
28087;DHT22;15392;48.912;8.380;2022-09-09T04:21:47;21.50;50.50
28087;DHT22;15392;48.912;8.380;2022-09-09T04:24:14;21.50;50.60
28087;DHT22;15392;48.912;8.380;2022-09-09T04:26:42;21.60;50.30
28087;DHT22;15392;48.912;8.380;2022-09-09T04:29:08;21.60;50.20
28087;DHT22;15392;48.912;8.380;2022-09-09T04:31:35;21.60;50.10
28087;DHT22;15392;48.912;8.380;2022-09-09T04:34:00;21.60;50.10
28087;DHT22;15392;48.912;8.380;2022-09-09T04:36:31;21.70;50.40
28087;DHT22;15392;48.912;8.380;2022-09-09T04:38:57;21.60;50.10
28087;DHT22;15392;48.912;8.380;2022-09-09T04:41:23;21.70;50.10
28087;DHT22;15392;48.912;8.380;2022-09-09T04:43:49;21.70;50.00
28087;DHT22;15392;48.912;8.380;2022-09-09T04:46:15;21.70;50.20
28087;DHT22;15392;48.912;8.380;2022-09-09T04:48:43;21.70;50.20
28087;DHT22;15392;48.912;8.380;2022-09-09T04:51:13;21.70;50.30
28087;DHT22;15392;48.912;8.380;2022-09-09T04:53:39;21.80;50.60
28087;DHT22;15392;48.912;8.380;2022-09-09T04:56:10;21.80;50.50
28087;DHT22;15392;48.912;8.380;2022-09-09T04:58:38;21.80;50.60
28087;DHT22;15392;48.912;8.380;2022-09-09T05:01:10;21.80;50.80
28087;DHT22;15392;48.912;8.380;2022-09-09T05:03:40;21.90;51.00
28087;DHT22;15392;48.912;8.380;2022-09-09T05:06:20;21.90;51.00
28087;DHT22;15392;48.912;8.380;2022-09-09T05:08:47;21.90;51.70
28087;DHT22;15392;48.912;8.380;2022-09-09T05:11:28;21.90;51.20
28087;DHT22;15392;48.912;8.380;2022-09-09T05:13:56;21.90;51.60
28087;DHT22;15392;48.912;8.380;2022-09-09T05:16:22;21.90;50.90
28087;DHT22;15392;48.912;8.380;2022-09-09T05:18:48;21.90;50.70
28087;DHT22;15392;48.912;8.380;2022-09-09T05:21:17;21.90;50.60
28087;DHT22;15392;48.912;8.380;2022-09-09T05:23:45;21.90;50.90
28087;DHT22;15392;48.912;8.380;2022-09-09T05:26:16;21.90;50.70
28087;DHT22;15392;48.912;8.380;2022-09-09T05:28:43;21.90;51.00
28087;DHT22;15392;48.912;8.380;2022-09-09T05:31:11;21.90;50.70
28087;DHT22;15392;48.912;8.380;2022-09-09T05:33:39;21.90;50.80
28087;DHT22;15392;48.912;8.380;2022-09-09T05:36:26;21.90;50.80
28087;DHT22;15392;48.912;8.380;2022-09-09T05:38:52;22.00;51.00
28087;DHT22;15392;48.912;8.380;2022-09-09T05:41:20;22.00;50.40
28087;DHT22;15392;48.912;8.380;2022-09-09T05:43:48;22.00;50.40
28087;DHT22;15392;48.912;8.380;2022-09-09T05:48:43;22.00;50.40
28087;DHT22;15392;48.912;8.380;2022-09-09T05:51:17;22.00;50.60
28087;DHT22;15392;48.912;8.380;2022-09-09T05:53:47;22.00;50.50
28087;DHT22;15392;48.912;8.380;2022-09-09T05:56:21;22.10;50.40
28087;DHT22;15392;48.912;8.380;2022-09-09T05:58:51;22.10;50.60
28087;DHT22;15392;48.912;8.380;2022-09-09T06:01:27;22.10;50.40
28087;DHT22;15392;48.912;8.380;2022-09-09T06:03:55;22.10;50.60
28087;DHT22;15392;48.912;8.380;2022-09-09T06:06:27;22.10;50.50
28087;DHT22;15392;48.912;8.380;2022-09-09T06:08:57;22.20;50.60
28087;DHT22;15392;48.912;8.380;2022-09-09T06:11:26;22.20;50.40
28087;DHT22;15392;48.912;8.380;2022-09-09T06:13:54;22.30;50.50
28087;DHT22;15392;48.912;8.380;2022-09-09T06:16:22;22.30;50.40
28087;DHT22;15392;48.912;8.380;2022-09-09T06:18:49;22.30;50.40
28087;DHT22;15392;48.912;8.380;2022-09-09T06:21:21;22.30;50.40
28087;DHT22;15392;48.912;8.380;2022-09-09T06:23:49;22.40;50.50
28087;DHT22;15392;48.912;8.380;2022-09-09T06:28:47;22.40;50.50
28087;DHT22;15392;48.912;8.380;2022-09-09T06:31:16;22.50;50.30
28087;DHT22;15392;48.912;8.380;2022-09-09T06:33:47;22.50;50.30
28087;DHT22;15392;48.912;8.380;2022-09-09T06:36:24;22.50;50.10
28087;DHT22;15392;48.912;8.380;2022-09-09T06:38:51;22.50;50.20
28087;DHT22;15392;48.912;8.380;2022-09-09T06:41:19;22.50;50.20
28087;DHT22;15392;48.912;8.380;2022-09-09T06:43:46;22.60;50.30
28087;DHT22;15392;48.912;8.380;2022-09-09T06:46:20;22.60;50.40
28087;DHT22;15392;48.912;8.380;2022-09-09T06:48:47;22.60;50.30
28087;DHT22;15392;48.912;8.380;2022-09-09T06:51:21;22.60;50.20
28087;DHT22;15392;48.912;8.380;2022-09-09T06:53:51;22.70;50.20
28087;DHT22;15392;48.912;8.380;2022-09-09T06:58:52;22.70;50.10
28087;DHT22;15392;48.912;8.380;2022-09-09T07:01:23;22.70;50.20
28087;DHT22;15392;48.912;8.380;2022-09-09T07:03:56;22.80;50.40
28087;DHT22;15392;48.912;8.380;2022-09-09T07:06:32;22.80;50.10
28087;DHT22;15392;48.912;8.380;2022-09-09T07:09:08;22.90;50.00
28087;DHT22;15392;48.912;8.380;2022-09-09T07:11:44;22.90;50.20
28087;DHT22;15392;48.912;8.380;2022-09-09T07:14:18;23.00;50.10
28087;DHT22;15392;48.912;8.380;2022-09-09T07:16:45;23.00;50.10
28087;DHT22;15392;48.912;8.380;2022-09-09T07:19:12;23.00;50.60
28087;DHT22;15392;48.912;8.380;2022-09-09T07:21:39;23.00;49.90
28087;DHT22;15392;48.912;8.380;2022-09-09T07:24:08;23.10;50.00
28087;DHT22;15392;48.912;8.380;2022-09-09T07:26:36;23.10;50.10
28087;DHT22;15392;48.912;8.380;2022-09-09T07:29:03;23.10;50.10
28087;DHT22;15392;48.912;8.380;2022-09-09T07:31:31;23.10;50.10
28087;DHT22;15392;48.912;8.380;2022-09-09T07:34:00;23.10;50.30
28087;DHT22;15392;48.912;8.380;2022-09-09T07:36:31;23.10;50.60
28087;DHT22;15392;48.912;8.380;2022-09-09T07:39:04;23.10;50.70
28087;DHT22;15392;48.912;8.380;2022-09-09T07:44:14;23.20;50.70
28087;DHT22;15392;48.912;8.380;2022-09-09T07:46:41;23.20;51.00
28087;DHT22;15392;48.912;8.380;2022-09-09T07:49:08;23.20;51.00
28087;DHT22;15392;48.912;8.380;2022-09-09T07:51:41;23.30;51.00
28087;DHT22;15392;48.912;8.380;2022-09-09T07:54:11;23.30;51.10
28087;DHT22;15392;48.912;8.380;2022-09-09T07:56:43;23.40;51.10
28087;DHT22;15392;48.912;8.380;2022-09-09T07:59:09;23.50;50.60
28087;DHT22;15392;48.912;8.380;2022-09-09T08:01:44;23.60;50.50
28087;DHT22;15392;48.912;8.380;2022-09-09T08:04:17;23.60;50.70
28087;DHT22;15392;48.912;8.380;2022-09-09T08:06:52;23.70;50.40
28087;DHT22;15392;48.912;8.380;2022-09-09T08:09:20;23.70;50.60
28087;DHT22;15392;48.912;8.380;2022-09-09T08:11:50;23.80;50.50
28087;DHT22;15392;48.912;8.380;2022-09-09T08:14:16;23.90;50.50
28087;DHT22;15392;48.912;8.380;2022-09-09T08:16:45;23.90;50.50
28087;DHT22;15392;48.912;8.380;2022-09-09T08:19:12;24.00;50.40
28087;DHT22;15392;48.912;8.380;2022-09-09T08:21:42;24.00;50.30
28087;DHT22;15392;48.912;8.380;2022-09-09T08:24:09;24.00;50.50
28087;DHT22;15392;48.912;8.380;2022-09-09T08:26:40;24.00;50.20
28087;DHT22;15392;48.912;8.380;2022-09-09T08:29:08;24.00;50.20
28087;DHT22;15392;48.912;8.380;2022-09-09T08:31:38;23.90;50.40
28087;DHT22;15392;48.912;8.380;2022-09-09T08:34:06;23.90;50.80
28087;DHT22;15392;48.912;8.380;2022-09-09T08:36:36;23.90;50.90
28087;DHT22;15392;48.912;8.380;2022-09-09T08:39:05;23.90;50.70
28087;DHT22;15392;48.912;8.380;2022-09-09T08:45:09;23.70;50.90
28087;DHT22;15392;48.912;8.380;2022-09-09T08:48:17;23.70;50.80
28087;DHT22;15392;48.912;8.380;2022-09-09T08:51:18;23.70;52.40
28087;DHT22;15392;48.912;8.380;2022-09-09T08:53:48;23.60;51.20
28087;DHT22;15392;48.912;8.380;2022-09-09T08:56:21;23.60;51.70
28087;DHT22;15392;48.912;8.380;2022-09-09T08:58:52;23.60;52.00
28087;DHT22;15392;48.912;8.380;2022-09-09T09:01:45;23.60;52.10
28087;DHT22;15392;48.912;8.380;2022-09-09T09:04:40;23.60;52.40
28087;DHT22;15392;48.912;8.380;2022-09-09T09:10:38;23.60;51.80
28087;DHT22;15392;48.912;8.380;2022-09-09T09:13:19;23.60;52.10
28087;DHT22;15392;48.912;8.380;2022-09-09T09:15:52;23.60;51.90
28087;DHT22;15392;48.912;8.380;2022-09-09T09:18:22;23.60;51.50
28087;DHT22;15392;48.912;8.380;2022-09-09T09:24:11;23.70;51.80
28087;DHT22;15392;48.912;8.380;2022-09-09T09:26:33;23.70;51.30
28087;DHT22;15392;48.912;8.380;2022-09-09T09:29:12;23.70;51.20
28087;DHT22;15392;48.912;8.380;2022-09-09T09:31:47;23.70;51.20
28087;DHT22;15392;48.912;8.380;2022-09-09T09:34:16;23.70;51.00
28087;DHT22;15392;48.912;8.380;2022-09-09T09:37:01;23.80;51.30
28087;DHT22;15392;48.912;8.380;2022-09-09T09:39:29;23.80;52.00
28087;DHT22;15392;48.912;8.380;2022-09-09T09:41:56;23.80;51.40
28087;DHT22;15392;48.912;8.380;2022-09-09T09:44:28;23.80;51.60
28087;DHT22;15392;48.912;8.380;2022-09-09T09:47:13;23.90;51.70
28087;DHT22;15392;48.912;8.380;2022-09-09T09:49:57;23.90;51.70
28087;DHT22;15392;48.912;8.380;2022-09-09T09:52:32;23.90;51.10
28087;DHT22;15392;48.912;8.380;2022-09-09T09:55:03;23.90;51.20
28087;DHT22;15392;48.912;8.380;2022-09-09T09:57:31;23.90;50.70
28087;DHT22;15392;48.912;8.380;2022-09-09T10:00:16;23.90;50.70
28087;DHT22;15392;48.912;8.380;2022-09-09T10:02:49;24.00;50.60
28087;DHT22;15392;48.912;8.380;2022-09-09T10:05:21;24.00;50.60
28087;DHT22;15392;48.912;8.380;2022-09-09T10:19:15;24.00;50.70
28087;DHT22;15392;48.912;8.380;2022-09-09T10:31:15;24.10;50.30
28087;DHT22;15392;48.912;8.380;2022-09-09T10:36:22;24.10;50.20
28087;DHT22;15392;48.912;8.380;2022-09-09T10:41:59;24.20;50.80
28087;DHT22;15392;48.912;8.380;2022-09-09T10:44:51;24.20;50.60
28087;DHT22;15392;48.912;8.380;2022-09-09T10:53:39;24.30;49.90
28087;DHT22;15392;48.912;8.380;2022-09-09T10:56:13;24.30;49.70
28087;DHT22;15392;48.912;8.380;2022-09-09T10:59:14;24.40;49.60
28087;DHT22;15392;48.912;8.380;2022-09-09T11:01:47;24.40;49.50
28087;DHT22;15392;48.912;8.380;2022-09-09T11:04:24;24.40;49.70
28087;DHT22;15392;48.912;8.380;2022-09-09T11:06:54;24.50;49.20
28087;DHT22;15392;48.912;8.380;2022-09-09T11:09:28;24.50;49.40
28087;DHT22;15392;48.912;8.380;2022-09-09T11:12:00;24.50;49.20
28087;DHT22;15392;48.912;8.380;2022-09-09T11:14:42;24.50;49.40
28087;DHT22;15392;48.912;8.380;2022-09-09T11:17:30;24.50;49.30
28087;DHT22;15392;48.912;8.380;2022-09-09T11:20:06;24.50;49.40
28087;DHT22;15392;48.912;8.380;2022-09-09T11:22:46;24.60;49.20
28087;DHT22;15392;48.912;8.380;2022-09-09T11:25:31;24.70;49.30
28087;DHT22;15392;48.912;8.380;2022-09-09T11:28:27;24.70;49.00
28087;DHT22;15392;48.912;8.380;2022-09-09T11:40:25;24.80;48.40
28087;DHT22;15392;48.912;8.380;2022-09-09T11:45:52;24.90;48.10
28087;DHT22;15392;48.912;8.380;2022-09-09T11:48:28;24.90;48.50
28087;DHT22;15392;48.912;8.380;2022-09-09T11:51:02;24.90;48.70
28087;DHT22;15392;48.912;8.380;2022-09-09T11:53:34;25.00;48.90
28087;DHT22;15392;48.912;8.380;2022-09-09T11:56:12;25.10;48.20
28087;DHT22;15392;48.912;8.380;2022-09-09T11:58:58;25.10;47.70
28087;DHT22;15392;48.912;8.380;2022-09-09T12:01:29;25.10;48.00
28087;DHT22;15392;48.912;8.380;2022-09-09T12:04:21;25.20;47.80
28087;DHT22;15392;48.912;8.380;2022-09-09T12:09:55;25.20;47.20
28087;DHT22;15392;48.912;8.380;2022-09-09T12:12:31;25.30;48.10
28087;DHT22;15392;48.912;8.380;2022-09-09T12:17:42;25.40;47.50
28087;DHT22;15392;48.912;8.380;2022-09-09T12:23:10;25.50;47.40
28087;DHT22;15392;48.912;8.380;2022-09-09T12:34:38;25.70;47.10
28087;DHT22;15392;48.912;8.380;2022-09-09T12:37:35;25.70;46.70
28087;DHT22;15392;48.912;8.380;2022-09-09T12:42:30;25.80;47.40
28087;DHT22;15392;48.912;8.380;2022-09-09T12:45:03;25.80;46.90
28087;DHT22;15392;48.912;8.380;2022-09-09T12:47:53;25.80;48.00
28087;DHT22;15392;48.912;8.380;2022-09-09T12:50:26;25.80;48.70
28087;DHT22;15392;48.912;8.380;2022-09-09T12:52:57;25.70;48.50
28087;DHT22;15392;48.912;8.380;2022-09-09T12:55:28;25.60;48.70
28087;DHT22;15392;48.912;8.380;2022-09-09T12:57:57;25.50;48.90
28087;DHT22;15392;48.912;8.380;2022-09-09T13:00:25;25.40;49.20
28087;DHT22;15392;48.912;8.380;2022-09-09T13:02:57;25.40;49.20
28087;DHT22;15392;48.912;8.380;2022-09-09T13:05:40;25.30;49.40
28087;DHT22;15392;48.912;8.380;2022-09-09T13:08:09;25.30;49.30
28087;DHT22;15392;48.912;8.380;2022-09-09T13:10:38;25.30;49.40
28087;DHT22;15392;48.912;8.380;2022-09-09T13:13:17;25.20;49.20
28087;DHT22;15392;48.912;8.380;2022-09-09T13:15:57;25.30;49.90
28087;DHT22;15392;48.912;8.380;2022-09-09T13:18:27;25.20;50.20
28087;DHT22;15392;48.912;8.380;2022-09-09T13:20:55;25.20;50.30
28087;DHT22;15392;48.912;8.380;2022-09-09T13:23:27;25.10;50.50
28087;DHT22;15392;48.912;8.380;2022-09-09T13:25:57;25.10;50.60
28087;DHT22;15392;48.912;8.380;2022-09-09T13:28:27;25.20;50.20
28087;DHT22;15392;48.912;8.380;2022-09-09T13:31:03;25.10;50.30
28087;DHT22;15392;48.912;8.380;2022-09-09T13:33:34;25.20;50.90
28087;DHT22;15392;48.912;8.380;2022-09-09T13:36:09;25.10;50.30
28087;DHT22;15392;48.912;8.380;2022-09-09T13:38:56;25.10;50.20
28087;DHT22;15392;48.912;8.380;2022-09-09T13:41:34;25.10;50.50
28087;DHT22;15392;48.912;8.380;2022-09-09T13:44:03;25.10;50.30
28087;DHT22;15392;48.912;8.380;2022-09-09T13:46:36;25.10;50.10
28087;DHT22;15392;48.912;8.380;2022-09-09T13:54:12;25.10;50.50
28087;DHT22;15392;48.912;8.380;2022-09-09T13:56:41;25.10;49.40
28087;DHT22;15392;48.912;8.380;2022-09-09T13:59:18;25.10;49.20
28087;DHT22;15392;48.912;8.380;2022-09-09T14:01:49;25.10;48.50
28087;DHT22;15392;48.912;8.380;2022-09-09T14:04:18;25.10;48.80
28087;DHT22;15392;48.912;8.380;2022-09-09T14:06:47;25.10;48.30
28087;DHT22;15392;48.912;8.380;2022-09-09T14:09:15;25.20;47.90
28087;DHT22;15392;48.912;8.380;2022-09-09T14:11:42;25.20;48.00
28087;DHT22;15392;48.912;8.380;2022-09-09T14:14:08;25.20;48.10
28087;DHT22;15392;48.912;8.380;2022-09-09T14:16:34;25.20;47.40
28087;DHT22;15392;48.912;8.380;2022-09-09T14:19:00;25.30;47.70
28087;DHT22;15392;48.912;8.380;2022-09-09T14:21:27;25.30;47.30
28087;DHT22;15392;48.912;8.380;2022-09-09T14:23:53;25.30;47.10
28087;DHT22;15392;48.912;8.380;2022-09-09T14:26:23;25.30;46.80
28087;DHT22;15392;48.912;8.380;2022-09-09T14:28:49;25.30;46.80
28087;DHT22;15392;48.912;8.380;2022-09-09T14:31:15;25.30;46.60
28087;DHT22;15392;48.912;8.380;2022-09-09T14:33:43;25.30;46.50
28087;DHT22;15392;48.912;8.380;2022-09-09T14:36:10;25.30;46.40
28087;DHT22;15392;48.912;8.380;2022-09-09T14:38:37;25.30;46.30
28087;DHT22;15392;48.912;8.380;2022-09-09T14:41:10;25.30;46.80
28087;DHT22;15392;48.912;8.380;2022-09-09T14:43:40;25.30;45.90
28087;DHT22;15392;48.912;8.380;2022-09-09T14:46:11;25.30;45.40
28087;DHT22;15392;48.912;8.380;2022-09-09T14:48:40;25.30;45.20
28087;DHT22;15392;48.912;8.380;2022-09-09T14:51:11;25.30;45.60
28087;DHT22;15392;48.912;8.380;2022-09-09T14:53:41;25.40;45.70
28087;DHT22;15392;48.912;8.380;2022-09-09T14:58:37;25.40;46.20
28087;DHT22;15392;48.912;8.380;2022-09-09T15:01:14;25.40;46.60
28087;DHT22;15392;48.912;8.380;2022-09-09T15:03:42;25.40;46.70
28087;DHT22;15392;48.912;8.380;2022-09-09T15:06:11;25.40;46.90
28087;DHT22;15392;48.912;8.380;2022-09-09T15:08:41;25.40;47.20
28087;DHT22;15392;48.912;8.380;2022-09-09T15:11:08;25.30;47.20
28087;DHT22;15392;48.912;8.380;2022-09-09T15:13:36;25.30;47.30
28087;DHT22;15392;48.912;8.380;2022-09-09T15:16:06;25.30;47.50
28087;DHT22;15392;48.912;8.380;2022-09-09T15:18:33;25.30;47.80
28087;DHT22;15392;48.912;8.380;2022-09-09T15:20:59;25.30;48.00
28087;DHT22;15392;48.912;8.380;2022-09-09T15:23:27;25.20;48.20
28087;DHT22;15392;48.912;8.380;2022-09-09T15:25:54;25.20;48.20
28087;DHT22;15392;48.912;8.380;2022-09-09T15:28:22;25.10;48.40
28087;DHT22;15392;48.912;8.380;2022-09-09T15:30:52;25.10;48.20
28087;DHT22;15392;48.912;8.380;2022-09-09T15:33:20;25.00;48.00
28087;DHT22;15392;48.912;8.380;2022-09-09T15:35:47;24.90;48.20
28087;DHT22;15392;48.912;8.380;2022-09-09T15:38:13;24.80;48.20
28087;DHT22;15392;48.912;8.380;2022-09-09T15:40:40;24.80;48.30
28087;DHT22;15392;48.912;8.380;2022-09-09T15:43:07;24.70;48.40
28087;DHT22;15392;48.912;8.380;2022-09-09T15:45:34;24.60;48.10
28087;DHT22;15392;48.912;8.380;2022-09-09T15:48:01;24.50;48.20
28087;DHT22;15392;48.912;8.380;2022-09-09T15:50:27;24.50;48.40
28087;DHT22;15392;48.912;8.380;2022-09-09T15:52:55;24.40;48.20
28087;DHT22;15392;48.912;8.380;2022-09-09T15:55:21;24.30;48.10
28087;DHT22;15392;48.912;8.380;2022-09-09T15:57:47;24.30;48.10
28087;DHT22;15392;48.912;8.380;2022-09-09T16:00:13;24.20;48.00
28087;DHT22;15392;48.912;8.380;2022-09-09T16:02:39;24.10;47.70
28087;DHT22;15392;48.912;8.380;2022-09-09T16:05:05;24.00;47.80
28087;DHT22;15392;48.912;8.380;2022-09-09T16:07:31;24.00;47.90
28087;DHT22;15392;48.912;8.380;2022-09-09T16:09:57;23.90;47.60
28087;DHT22;15392;48.912;8.380;2022-09-09T16:12:23;23.90;47.50
28087;DHT22;15392;48.912;8.380;2022-09-09T16:14:49;23.80;47.50
28087;DHT22;15392;48.912;8.380;2022-09-09T16:17:14;23.70;47.80
28087;DHT22;15392;48.912;8.380;2022-09-09T16:19:40;23.60;47.80
28087;DHT22;15392;48.912;8.380;2022-09-09T16:22:06;23.60;47.70
28087;DHT22;15392;48.912;8.380;2022-09-09T16:24:33;23.60;47.80
28087;DHT22;15392;48.912;8.380;2022-09-09T16:26:59;23.50;47.70
28087;DHT22;15392;48.912;8.380;2022-09-09T16:29:25;23.40;48.20
28087;DHT22;15392;48.912;8.380;2022-09-09T16:31:53;23.40;47.60
28087;DHT22;15392;48.912;8.380;2022-09-09T16:34:20;23.40;47.50
28087;DHT22;15392;48.912;8.380;2022-09-09T16:36:47;23.40;47.50
28087;DHT22;15392;48.912;8.380;2022-09-09T16:39:16;23.40;47.50
28087;DHT22;15392;48.912;8.380;2022-09-09T16:41:44;23.40;47.60
28087;DHT22;15392;48.912;8.380;2022-09-09T16:44:11;23.40;47.70
28087;DHT22;15392;48.912;8.380;2022-09-09T16:46:40;23.30;47.80
28087;DHT22;15392;48.912;8.380;2022-09-09T16:49:09;23.30;47.90
28087;DHT22;15392;48.912;8.380;2022-09-09T16:51:41;23.30;47.90
28087;DHT22;15392;48.912;8.380;2022-09-09T16:54:09;23.40;47.90
28087;DHT22;15392;48.912;8.380;2022-09-09T16:56:41;23.40;47.90
28087;DHT22;15392;48.912;8.380;2022-09-09T16:59:16;23.40;47.90
28087;DHT22;15392;48.912;8.380;2022-09-09T17:01:45;23.40;47.90
28087;DHT22;15392;48.912;8.380;2022-09-09T17:04:15;23.40;48.00
28087;DHT22;15392;48.912;8.380;2022-09-09T17:06:50;23.30;48.10
28087;DHT22;15392;48.912;8.380;2022-09-09T17:09:18;23.40;48.30
28087;DHT22;15392;48.912;8.380;2022-09-09T17:11:47;23.30;48.20
28087;DHT22;15392;48.912;8.380;2022-09-09T17:14:17;23.30;48.30
28087;DHT22;15392;48.912;8.380;2022-09-09T17:16:44;23.30;48.50
28087;DHT22;15392;48.912;8.380;2022-09-09T17:19:11;23.30;48.50
28087;DHT22;15392;48.912;8.380;2022-09-09T17:21:38;23.30;48.60
28087;DHT22;15392;48.912;8.380;2022-09-09T17:24:04;23.30;48.70
28087;DHT22;15392;48.912;8.380;2022-09-09T17:26:31;23.20;48.50
28087;DHT22;15392;48.912;8.380;2022-09-09T17:28:59;23.20;48.50
28087;DHT22;15392;48.912;8.380;2022-09-09T17:31:26;23.20;48.50
28087;DHT22;15392;48.912;8.380;2022-09-09T17:33:53;23.20;48.30
28087;DHT22;15392;48.912;8.380;2022-09-09T17:36:30;23.20;48.30
28087;DHT22;15392;48.912;8.380;2022-09-09T17:38:59;23.10;48.40
28087;DHT22;15392;48.912;8.380;2022-09-09T17:41:27;23.10;48.40
28087;DHT22;15392;48.912;8.380;2022-09-09T17:43:55;23.10;49.00
28087;DHT22;15392;48.912;8.380;2022-09-09T17:46:27;23.10;48.40
28087;DHT22;15392;48.912;8.380;2022-09-09T17:49:03;23.10;48.40
28087;DHT22;15392;48.912;8.380;2022-09-09T17:51:32;23.10;48.30
28087;DHT22;15392;48.912;8.380;2022-09-09T17:54:21;23.10;48.20
28087;DHT22;15392;48.912;8.380;2022-09-09T17:56:47;23.10;48.40
28087;DHT22;15392;48.912;8.380;2022-09-09T17:59:15;23.10;48.40
28087;DHT22;15392;48.912;8.380;2022-09-09T18:01:44;23.10;48.50
28087;DHT22;15392;48.912;8.380;2022-09-09T18:04:13;23.10;48.50
28087;DHT22;15392;48.912;8.380;2022-09-09T18:06:44;23.10;48.60
28087;DHT22;15392;48.912;8.380;2022-09-09T18:09:15;23.10;48.60
28087;DHT22;15392;48.912;8.380;2022-09-09T18:11:48;23.10;48.50
28087;DHT22;15392;48.912;8.380;2022-09-09T18:14:17;23.10;48.60
28087;DHT22;15392;48.912;8.380;2022-09-09T18:16:45;23.10;48.50
28087;DHT22;15392;48.912;8.380;2022-09-09T18:19:13;23.00;48.50
28087;DHT22;15392;48.912;8.380;2022-09-09T18:21:42;23.10;48.50
28087;DHT22;15392;48.912;8.380;2022-09-09T18:24:10;23.00;48.90
28087;DHT22;15392;48.912;8.380;2022-09-09T18:26:38;23.00;48.20